Fort Klamath, OR

12:28 AM PDT on April 28, 2017 (GMT -0700)
MSVMO3 | | Change Station

Elev 5697 ft 42.70 °N, 122.14 °W | Updated 11 days ago

Mostly Cloudy
Mostly Cloudy
38.0 °F
Feels Like 38 °F
N
-
Wind Variable Wind from North

Today
High -- | Low -- °F
--% Chance of Precip.
Yesterday
High -- | Low -- °F
Precip. -- in
Pressure 30.13 in
Visibility 10.0 miles
Clouds Clear
Windchill 38 °F
Dew Point Not available.
Humidity Not available.
Rainfall 0.00 in
Snow Depth Not available.
6:06 AM 8:05 PM
Waxing Crescent, 5% visible
METAR KLMT 280653Z AUTO 28007KT 10SM CLR 01/M03 A3012 RMK AO2 SLP202 T00061028
Pressure 30.13 in
Visibility 10.0 miles
Clouds Clear
Windchill 38 °F
Dew Point Not available.
Humidity Not available.
Rainfall 0.00 in
Snow Depth Not available.
6:06 AM 8:05 PM
Waxing Crescent, 5% visible
METAR KLMT 280653Z AUTO 28007KT 10SM CLR 01/M03 A3012 RMK AO2 SLP202 T00061028

Get Severe Weather Alerts

Thanks for signing up!

Be on the lookout for a verification email in your inbox.

You'll start receiving the daily forecast at 8 AM.

×

10-Day Weather Forecast

Almanac

Astronomy

Apr. 28, 2017 Rise Set
Actual Time
Civil Twilight
Nautical Twilight
Astronomical Twilight
Moon
Length of Visible Light
Length of Day
Tomorrow will be .
, % of the Moon is Illuminated

Today's Extremes

State Highs State Lows

Community

WunderPhotos

WunderBlog® & News

Nearby

Air Quality

  Air Quality AQ Index Pollutant
Not available.

Snow Depth

Station Depth Elevation

Earthquake Activity

City Distance Mag. Time & Date
Minimum magnitude displayed is 2.5.

Coastal Water Temperatures

Place Temperature

Stations

Nearby Weather Stations

Station Location Temp. Windchill Dew Point Humidity Wind Precip. Elev Updated Type
                   

Watches & Warnings

There are currently no watches in effect.